sensor_id;sensor_type;location;lat;lon;timestamp;temperature;humidity
24450;DHT22;13349;50.984;5.822;2022-08-30T00:02:15;16.00;1.00
24450;DHT22;13349;50.984;5.822;2022-08-30T00:04:42;15.90;1.00
24450;DHT22;13349;50.984;5.822;2022-08-30T00:07:09;15.90;1.00
24450;DHT22;13349;50.984;5.822;2022-08-30T00:09:39;15.90;1.00
24450;DHT22;13349;50.984;5.822;2022-08-30T00:12:06;15.90;1.00
24450;DHT22;13349;50.984;5.822;2022-08-30T00:14:34;15.90;1.00
24450;DHT22;13349;50.984;5.822;2022-08-30T00:17:01;15.90;1.00
24450;DHT22;13349;50.984;5.822;2022-08-30T00:19:28;15.90;1.00
24450;DHT22;13349;50.984;5.822;2022-08-30T00:21:55;16.00;1.00
24450;DHT22;13349;50.984;5.822;2022-08-30T00:24:22;16.00;1.00
24450;DHT22;13349;50.984;5.822;2022-08-30T00:26:51;16.10;1.00
24450;DHT22;13349;50.984;5.822;2022-08-30T00:29:18;16.10;1.00
24450;DHT22;13349;50.984;5.822;2022-08-30T00:31:45;16.00;1.00
24450;DHT22;13349;50.984;5.822;2022-08-30T00:34:13;16.00;1.00
24450;DHT22;13349;50.984;5.822;2022-08-30T00:36:41;16.00;1.00
24450;DHT22;13349;50.984;5.822;2022-08-30T00:39:08;16.00;1.00
24450;DHT22;13349;50.984;5.822;2022-08-30T00:41:36;15.90;1.00
24450;DHT22;13349;50.984;5.822;2022-08-30T00:44:04;16.00;1.00
24450;DHT22;13349;50.984;5.822;2022-08-30T00:46:32;15.90;1.00
24450;DHT22;13349;50.984;5.822;2022-08-30T00:49:02;16.00;1.00
24450;DHT22;13349;50.984;5.822;2022-08-30T00:51:31;16.00;1.00
24450;DHT22;13349;50.984;5.822;2022-08-30T00:54:00;15.90;1.00
24450;DHT22;13349;50.984;5.822;2022-08-30T00:56:28;15.90;1.00
24450;DHT22;13349;50.984;5.822;2022-08-30T00:58:58;15.80;1.00
24450;DHT22;13349;50.984;5.822;2022-08-30T01:01:27;15.90;1.00
24450;DHT22;13349;50.984;5.822;2022-08-30T01:03:55;15.90;1.00
24450;DHT22;13349;50.984;5.822;2022-08-30T01:06:22;16.00;1.00
24450;DHT22;13349;50.984;5.822;2022-08-30T01:08:50;15.90;1.00
24450;DHT22;13349;50.984;5.822;2022-08-30T01:11:21;15.90;1.00
24450;DHT22;13349;50.984;5.822;2022-08-30T01:13:50;15.80;1.00
24450;DHT22;13349;50.984;5.822;2022-08-30T01:16:19;15.90;1.00
24450;DHT22;13349;50.984;5.822;2022-08-30T01:18:48;15.90;1.00
24450;DHT22;13349;50.984;5.822;2022-08-30T01:21:19;15.80;1.00
24450;DHT22;13349;50.984;5.822;2022-08-30T01:23:49;15.80;1.00
24450;DHT22;13349;50.984;5.822;2022-08-30T01:26:18;15.70;1.00
24450;DHT22;13349;50.984;5.822;2022-08-30T01:28:49;15.60;1.00
24450;DHT22;13349;50.984;5.822;2022-08-30T01:31:17;15.60;3.50
24450;DHT22;13349;50.984;5.822;2022-08-30T01:33:45;15.50;19.40
24450;DHT22;13349;50.984;5.822;2022-08-30T01:36:13;15.40;50.00
24450;DHT22;13349;50.984;5.822;2022-08-30T01:38:45;15.40;92.40
24450;DHT22;13349;50.984;5.822;2022-08-30T01:41:16;15.30;99.90
24450;DHT22;13349;50.984;5.822;2022-08-30T01:43:44;15.30;99.90
24450;DHT22;13349;50.984;5.822;2022-08-30T01:46:13;15.20;99.90
24450;DHT22;13349;50.984;5.822;2022-08-30T01:48:41;15.10;99.90
24450;DHT22;13349;50.984;5.822;2022-08-30T01:51:10;15.10;99.90
24450;DHT22;13349;50.984;5.822;2022-08-30T01:53:38;15.20;99.90
24450;DHT22;13349;50.984;5.822;2022-08-30T01:56:05;15.20;99.90
24450;DHT22;13349;50.984;5.822;2022-08-30T01:58:36;15.20;99.90
24450;DHT22;13349;50.984;5.822;2022-08-30T02:01:04;15.20;99.90
24450;DHT22;13349;50.984;5.822;2022-08-30T02:03:32;15.30;99.90
24450;DHT22;13349;50.984;5.822;2022-08-30T02:06:02;15.40;99.90
24450;DHT22;13349;50.984;5.822;2022-08-30T02:08:30;15.40;99.90
24450;DHT22;13349;50.984;5.822;2022-08-30T02:10:57;15.40;99.90
24450;DHT22;13349;50.984;5.822;2022-08-30T02:13:25;15.40;99.90
24450;DHT22;13349;50.984;5.822;2022-08-30T02:15:53;15.30;99.90
24450;DHT22;13349;50.984;5.822;2022-08-30T02:18:21;15.20;99.90
24450;DHT22;13349;50.984;5.822;2022-08-30T02:20:48;15.20;99.90
24450;DHT22;13349;50.984;5.822;2022-08-30T02:23:16;15.10;99.90
24450;DHT22;13349;50.984;5.822;2022-08-30T02:25:44;15.00;99.90
24450;DHT22;13349;50.984;5.822;2022-08-30T02:28:12;14.90;99.90
24450;DHT22;13349;50.984;5.822;2022-08-30T02:30:40;14.90;99.90
24450;DHT22;13349;50.984;5.822;2022-08-30T02:33:09;14.80;99.90
24450;DHT22;13349;50.984;5.822;2022-08-30T02:35:36;14.70;1.00
24450;DHT22;13349;50.984;5.822;2022-08-30T02:38:04;14.70;1.00
24450;DHT22;13349;50.984;5.822;2022-08-30T02:40:31;14.70;1.00
24450;DHT22;13349;50.984;5.822;2022-08-30T02:42:59;14.80;1.00
24450;DHT22;13349;50.984;5.822;2022-08-30T02:45:26;14.80;1.00
24450;DHT22;13349;50.984;5.822;2022-08-30T02:47:53;14.90;1.00
24450;DHT22;13349;50.984;5.822;2022-08-30T02:50:24;15.00;1.00
24450;DHT22;13349;50.984;5.822;2022-08-30T02:52:51;14.90;1.00
24450;DHT22;13349;50.984;5.822;2022-08-30T02:55:19;14.90;1.00
24450;DHT22;13349;50.984;5.822;2022-08-30T02:57:46;14.80;1.00
24450;DHT22;13349;50.984;5.822;2022-08-30T03:00:16;14.80;1.00
24450;DHT22;13349;50.984;5.822;2022-08-30T03:02:46;14.80;1.00
24450;DHT22;13349;50.984;5.822;2022-08-30T03:05:14;14.90;1.00
24450;DHT22;13349;50.984;5.822;2022-08-30T03:07:44;14.90;1.00
24450;DHT22;13349;50.984;5.822;2022-08-30T03:10:14;14.90;1.00
24450;DHT22;13349;50.984;5.822;2022-08-30T03:12:41;14.90;1.00
24450;DHT22;13349;50.984;5.822;2022-08-30T03:15:09;14.90;1.00
24450;DHT22;13349;50.984;5.822;2022-08-30T03:17:37;14.90;1.00
24450;DHT22;13349;50.984;5.822;2022-08-30T03:20:05;14.90;1.00
24450;DHT22;13349;50.984;5.822;2022-08-30T03:22:33;14.90;1.00
24450;DHT22;13349;50.984;5.822;2022-08-30T03:25:02;14.90;1.00
24450;DHT22;13349;50.984;5.822;2022-08-30T03:27:29;14.90;1.00
24450;DHT22;13349;50.984;5.822;2022-08-30T03:29:56;15.00;1.00
24450;DHT22;13349;50.984;5.822;2022-08-30T03:32:23;15.10;1.00
24450;DHT22;13349;50.984;5.822;2022-08-30T03:34:51;15.10;1.00
24450;DHT22;13349;50.984;5.822;2022-08-30T03:37:18;15.20;1.00
24450;DHT22;13349;50.984;5.822;2022-08-30T03:39:45;15.20;1.00
24450;DHT22;13349;50.984;5.822;2022-08-30T03:42:14;15.10;1.00
24450;DHT22;13349;50.984;5.822;2022-08-30T03:44:41;15.10;1.00
24450;DHT22;13349;50.984;5.822;2022-08-30T03:47:08;15.00;66.20
24450;DHT22;13349;50.984;5.822;2022-08-30T03:49:35;15.00;99.90
24450;DHT22;13349;50.984;5.822;2022-08-30T03:52:03;15.00;99.90
24450;DHT22;13349;50.984;5.822;2022-08-30T03:54:30;15.00;99.90
24450;DHT22;13349;50.984;5.822;2022-08-30T03:56:58;15.00;1.00
24450;DHT22;13349;50.984;5.822;2022-08-30T03:59:26;15.10;1.00
24450;DHT22;13349;50.984;5.822;2022-08-30T04:01:54;15.10;1.00
24450;DHT22;13349;50.984;5.822;2022-08-30T04:04:21;15.20;1.00
24450;DHT22;13349;50.984;5.822;2022-08-30T04:06:48;15.30;1.00
24450;DHT22;13349;50.984;5.822;2022-08-30T04:09:15;15.40;1.00
24450;DHT22;13349;50.984;5.822;2022-08-30T04:11:43;15.40;1.00
24450;DHT22;13349;50.984;5.822;2022-08-30T04:14:10;15.40;1.00
24450;DHT22;13349;50.984;5.822;2022-08-30T04:16:38;15.40;1.00
24450;DHT22;13349;50.984;5.822;2022-08-30T04:19:06;15.40;1.00
24450;DHT22;13349;50.984;5.822;2022-08-30T04:21:33;15.20;1.00
24450;DHT22;13349;50.984;5.822;2022-08-30T04:24:00;15.20;6.20
24450;DHT22;13349;50.984;5.822;2022-08-30T04:26:27;15.20;73.90
24450;DHT22;13349;50.984;5.822;2022-08-30T04:28:54;15.30;1.00
24450;DHT22;13349;50.984;5.822;2022-08-30T04:31:21;15.40;1.00
24450;DHT22;13349;50.984;5.822;2022-08-30T04:33:50;15.40;1.00
24450;DHT22;13349;50.984;5.822;2022-08-30T04:36:17;15.40;1.00
24450;DHT22;13349;50.984;5.822;2022-08-30T04:38:44;15.40;99.90
24450;DHT22;13349;50.984;5.822;2022-08-30T04:41:14;15.40;99.90
24450;DHT22;13349;50.984;5.822;2022-08-30T04:43:41;15.50;99.90
24450;DHT22;13349;50.984;5.822;2022-08-30T04:46:09;15.40;99.90
24450;DHT22;13349;50.984;5.822;2022-08-30T04:48:37;15.40;99.90
24450;DHT22;13349;50.984;5.822;2022-08-30T04:51:07;15.50;99.90
24450;DHT22;13349;50.984;5.822;2022-08-30T04:53:35;15.40;99.90
24450;DHT22;13349;50.984;5.822;2022-08-30T04:56:06;15.40;99.90
24450;DHT22;13349;50.984;5.822;2022-08-30T04:58:33;15.40;99.90
24450;DHT22;13349;50.984;5.822;2022-08-30T05:01:00;15.40;1.00
24450;DHT22;13349;50.984;5.822;2022-08-30T05:03:27;15.30;1.00
24450;DHT22;13349;50.984;5.822;2022-08-30T05:05:54;15.30;1.00
24450;DHT22;13349;50.984;5.822;2022-08-30T05:08:23;15.40;1.00
24450;DHT22;13349;50.984;5.822;2022-08-30T05:10:51;15.40;1.00
24450;DHT22;13349;50.984;5.822;2022-08-30T05:13:19;15.40;1.00
24450;DHT22;13349;50.984;5.822;2022-08-30T05:15:47;15.50;1.00
24450;DHT22;13349;50.984;5.822;2022-08-30T05:18:14;15.50;1.00
24450;DHT22;13349;50.984;5.822;2022-08-30T05:20:42;15.60;1.00
24450;DHT22;13349;50.984;5.822;2022-08-30T05:23:09;15.70;1.00
24450;DHT22;13349;50.984;5.822;2022-08-30T05:25:39;15.80;99.90
24450;DHT22;13349;50.984;5.822;2022-08-30T05:28:07;15.80;99.90
24450;DHT22;13349;50.984;5.822;2022-08-30T05:30:36;15.90;1.00
24450;DHT22;13349;50.984;5.822;2022-08-30T05:33:03;16.00;99.90
24450;DHT22;13349;50.984;5.822;2022-08-30T05:35:30;16.00;99.90
24450;DHT22;13349;50.984;5.822;2022-08-30T05:37:57;16.00;99.90
24450;DHT22;13349;50.984;5.822;2022-08-30T05:40:24;16.10;99.90
24450;DHT22;13349;50.984;5.822;2022-08-30T05:42:53;16.10;1.00
24450;DHT22;13349;50.984;5.822;2022-08-30T05:45:20;16.20;1.00
24450;DHT22;13349;50.984;5.822;2022-08-30T05:47:47;16.20;1.00
24450;DHT22;13349;50.984;5.822;2022-08-30T05:50:14;16.30;1.00
24450;DHT22;13349;50.984;5.822;2022-08-30T05:52:42;16.40;1.00
24450;DHT22;13349;50.984;5.822;2022-08-30T05:55:11;16.60;1.00
24450;DHT22;13349;50.984;5.822;2022-08-30T05:57:39;16.80;1.00
24450;DHT22;13349;50.984;5.822;2022-08-30T06:00:09;17.10;99.90
24450;DHT22;13349;50.984;5.822;2022-08-30T06:02:38;17.00;99.90
24450;DHT22;13349;50.984;5.822;2022-08-30T06:05:05;16.90;99.90
24450;DHT22;13349;50.984;5.822;2022-08-30T06:07:33;16.90;99.90
24450;DHT22;13349;50.984;5.822;2022-08-30T06:10:00;16.90;99.90
24450;DHT22;13349;50.984;5.822;2022-08-30T06:12:27;16.90;99.90
24450;DHT22;13349;50.984;5.822;2022-08-30T06:14:54;16.80;99.90
24450;DHT22;13349;50.984;5.822;2022-08-30T06:17:23;16.80;99.90
24450;DHT22;13349;50.984;5.822;2022-08-30T06:19:50;16.90;99.90
24450;DHT22;13349;50.984;5.822;2022-08-30T06:22:17;17.00;99.90
24450;DHT22;13349;50.984;5.822;2022-08-30T06:24:44;17.10;99.90
24450;DHT22;13349;50.984;5.822;2022-08-30T06:27:11;17.30;43.10
24450;DHT22;13349;50.984;5.822;2022-08-30T06:29:38;17.40;1.00
24450;DHT22;13349;50.984;5.822;2022-08-30T06:32:05;17.50;1.00
24450;DHT22;13349;50.984;5.822;2022-08-30T06:34:34;17.60;1.00
24450;DHT22;13349;50.984;5.822;2022-08-30T06:37:01;17.60;1.00
24450;DHT22;13349;50.984;5.822;2022-08-30T06:39:28;17.60;1.00
24450;DHT22;13349;50.984;5.822;2022-08-30T06:41:55;17.70;1.00
24450;DHT22;13349;50.984;5.822;2022-08-30T06:44:22;17.90;1.00
24450;DHT22;13349;50.984;5.822;2022-08-30T06:46:49;18.10;1.00
24450;DHT22;13349;50.984;5.822;2022-08-30T06:49:16;18.20;1.00
24450;DHT22;13349;50.984;5.822;2022-08-30T06:51:45;18.30;1.00
24450;DHT22;13349;50.984;5.822;2022-08-30T06:54:12;18.50;1.00
24450;DHT22;13349;50.984;5.822;2022-08-30T06:56:39;18.50;1.00
24450;DHT22;13349;50.984;5.822;2022-08-30T06:59:06;18.50;1.00
24450;DHT22;13349;50.984;5.822;2022-08-30T07:01:34;18.50;99.90
24450;DHT22;13349;50.984;5.822;2022-08-30T07:04:01;18.60;1.00
24450;DHT22;13349;50.984;5.822;2022-08-30T07:06:29;18.60;99.90
24450;DHT22;13349;50.984;5.822;2022-08-30T07:08:58;18.60;99.90
24450;DHT22;13349;50.984;5.822;2022-08-30T07:11:30;18.80;99.90
24450;DHT22;13349;50.984;5.822;2022-08-30T07:13:58;18.80;99.90
24450;DHT22;13349;50.984;5.822;2022-08-30T07:16:25;18.90;99.90
24450;DHT22;13349;50.984;5.822;2022-08-30T07:18:52;18.90;99.90
24450;DHT22;13349;50.984;5.822;2022-08-30T07:21:23;18.90;99.90
24450;DHT22;13349;50.984;5.822;2022-08-30T07:23:50;19.00;99.90
24450;DHT22;13349;50.984;5.822;2022-08-30T07:26:21;19.20;99.90
24450;DHT22;13349;50.984;5.822;2022-08-30T07:28:48;19.30;99.90
24450;DHT22;13349;50.984;5.822;2022-08-30T07:31:17;19.50;49.80
24450;DHT22;13349;50.984;5.822;2022-08-30T07:33:45;19.50;1.00
24450;DHT22;13349;50.984;5.822;2022-08-30T07:36:13;19.70;1.00
24450;DHT22;13349;50.984;5.822;2022-08-30T07:38:43;19.90;1.00
24450;DHT22;13349;50.984;5.822;2022-08-30T07:41:16;20.10;1.00
24450;DHT22;13349;50.984;5.822;2022-08-30T07:43:45;20.30;1.00
24450;DHT22;13349;50.984;5.822;2022-08-30T07:46:13;20.40;1.00
24450;DHT22;13349;50.984;5.822;2022-08-30T07:48:41;20.60;1.00
24450;DHT22;13349;50.984;5.822;2022-08-30T07:51:10;20.60;1.00
24450;DHT22;13349;50.984;5.822;2022-08-30T07:53:37;20.70;1.00
24450;DHT22;13349;50.984;5.822;2022-08-30T07:56:05;20.60;1.00
24450;DHT22;13349;50.984;5.822;2022-08-30T07:58:32;20.70;1.00
